sensor_id;sensor_type;location;lat;lon;timestamp;pressure;altitude;pressure_sealevel;temperature;humidity
14790;BME280;7486;51.010;10.366;2023-07-28T00:02:40;97266.25;;;14.21;99.53
14790;BME280;7486;51.010;10.366;2023-07-28T00:05:26;97183.06;;;13.55;100.00
14790;BME280;7486;51.010;10.366;2023-07-28T00:08:11;97034.34;;;12.57;99.49
14790;BME280;7486;51.010;10.366;2023-07-28T00:10:57;97300.09;;;14.47;98.30
14790;BME280;7486;51.010;10.366;2023-07-28T00:13:47;97044.44;;;12.77;98.23
14790;BME280;7486;51.010;10.366;2023-07-28T00:16:32;97297.75;;;14.29;100.00
14790;BME280;7486;51.010;10.366;2023-07-28T00:19:19;97261.56;;;14.06;100.00
14790;BME280;7486;51.010;10.366;2023-07-28T00:22:05;97270.09;;;14.08;100.00
14790;BME280;7486;51.010;10.366;2023-07-28T00:24:50;97035.34;;;12.72;99.84
14790;BME280;7486;51.010;10.366;2023-07-28T00:27:36;97175.19;;;13.65;99.78
14790;BME280;7486;51.010;10.366;2023-07-28T00:30:23;97294.97;;;14.41;99.53
14790;BME280;7486;51.010;10.366;2023-07-28T00:33:09;97243.19;;;13.78;100.00
14790;BME280;7486;51.010;10.366;2023-07-28T00:35:55;97010.44;;;12.35;100.00
14790;BME280;7486;51.010;10.366;2023-07-28T00:38:40;97235.31;;;13.66;100.00
14790;BME280;7486;51.010;10.366;2023-07-28T00:41:26;97261.97;;;13.93;100.00
14790;BME280;7486;51.010;10.366;2023-07-28T00:44:11;97262.97;;;13.87;100.00
14790;BME280;7486;51.010;10.366;2023-07-28T00:46:57;97187.75;;;13.27;100.00
14790;BME280;7486;51.010;10.366;2023-07-28T00:49:43;97068.16;;;12.61;100.00
14790;BME280;7486;51.010;10.366;2023-07-28T00:52:28;97284.34;;;13.97;100.00
14790;BME280;7486;51.010;10.366;2023-07-28T00:55:15;97189.72;;;13.36;100.00
14790;BME280;7486;51.010;10.366;2023-07-28T00:58:01;97168.22;;;13.38;100.00
14790;BME280;7486;51.010;10.366;2023-07-28T01:00:47;97142.97;;;13.18;100.00
14790;BME280;7486;51.010;10.366;2023-07-28T01:03:33;97295.47;;;14.16;100.00
14790;BME280;7486;51.010;10.366;2023-07-28T01:06:27;97166.19;;;13.50;100.00
14790;BME280;7486;51.010;10.366;2023-07-28T01:09:19;97099.47;;;12.81;100.00
14790;BME280;7486;51.010;10.366;2023-07-28T01:12:08;97216.34;;;13.85;99.62
14790;BME280;7486;51.010;10.366;2023-07-28T01:14:53;97257.00;;;14.02;99.16
14790;BME280;7486;51.010;10.366;2023-07-28T01:17:39;97204.56;;;13.76;99.38
14790;BME280;7486;51.010;10.366;2023-07-28T01:20:29;97245.84;;;14.05;98.66
14790;BME280;7486;51.010;10.366;2023-07-28T01:23:20;97290.31;;;14.31;98.80
14790;BME280;7486;51.010;10.366;2023-07-28T01:26:08;97290.78;;;14.28;98.23
14790;BME280;7486;51.010;10.366;2023-07-28T01:28:54;97260.88;;;13.89;99.63
14790;BME280;7486;51.010;10.366;2023-07-28T01:31:40;97100.03;;;12.61;100.00
14790;BME280;7486;51.010;10.366;2023-07-28T01:34:25;97263.25;;;13.91;100.00
14790;BME280;7486;51.010;10.366;2023-07-28T01:37:10;97209.09;;;13.75;98.49
14790;BME280;7486;51.010;10.366;2023-07-28T01:39:56;97220.88;;;13.84;97.59
14790;BME280;7486;51.010;10.366;2023-07-28T01:42:42;97232.84;;;13.82;99.15
14790;BME280;7486;51.010;10.366;2023-07-28T01:45:27;97227.41;;;13.71;98.96
14790;BME280;7486;51.010;10.366;2023-07-28T01:48:13;97205.25;;;13.44;100.00
14790;BME280;7486;51.010;10.366;2023-07-28T01:50:58;97224.31;;;13.36;100.00
14790;BME280;7486;51.010;10.366;2023-07-28T01:53:43;97197.97;;;13.13;100.00
14790;BME280;7486;51.010;10.366;2023-07-28T01:56:29;97152.03;;;12.96;100.00
14790;BME280;7486;51.010;10.366;2023-07-28T01:59:15;97210.66;;;13.28;100.00
14790;BME280;7486;51.010;10.366;2023-07-28T02:02:01;97200.94;;;13.38;100.00
14790;BME280;7486;51.010;10.366;2023-07-28T02:04:46;97273.97;;;13.96;99.12
14790;BME280;7486;51.010;10.366;2023-07-28T02:07:32;97124.94;;;12.99;99.84
14790;BME280;7486;51.010;10.366;2023-07-28T02:10:18;97271.44;;;13.84;99.86
14790;BME280;7486;51.010;10.366;2023-07-28T02:13:03;97205.44;;;13.38;98.94
14790;BME280;7486;51.010;10.366;2023-07-28T02:15:49;97234.44;;;13.56;99.74
14790;BME280;7486;51.010;10.366;2023-07-28T02:18:34;97126.69;;;12.66;99.28
14790;BME280;7486;51.010;10.366;2023-07-28T02:21:19;96969.72;;;11.69;99.85
14790;BME280;7486;51.010;10.366;2023-07-28T02:24:05;97302.41;;;13.68;100.00
14790;BME280;7486;51.010;10.366;2023-07-28T02:26:51;97108.09;;;12.33;100.00
14790;BME280;7486;51.010;10.366;2023-07-28T02:29:36;97116.38;;;12.53;100.00
14790;BME280;7486;51.010;10.366;2023-07-28T02:32:22;97072.75;;;12.11;100.00
14790;BME280;7486;51.010;10.366;2023-07-28T02:35:07;97284.72;;;13.57;100.00
14790;BME280;7486;51.010;10.366;2023-07-28T02:37:53;97296.66;;;13.55;100.00
14790;BME280;7486;51.010;10.366;2023-07-28T02:40:39;97277.19;;;13.33;100.00
14790;BME280;7486;51.010;10.366;2023-07-28T02:43:24;97202.56;;;12.79;100.00
14790;BME280;7486;51.010;10.366;2023-07-28T02:46:10;97241.84;;;13.15;100.00
14790;BME280;7486;51.010;10.366;2023-07-28T02:48:55;97275.47;;;13.43;100.00
14790;BME280;7486;51.010;10.366;2023-07-28T02:51:41;97049.03;;;12.04;99.45
14790;BME280;7486;51.010;10.366;2023-07-28T02:54:26;97113.66;;;12.48;99.43
14790;BME280;7486;51.010;10.366;2023-07-28T02:57:12;97126.91;;;12.65;99.69
14790;BME280;7486;51.010;10.366;2023-07-28T03:00:00;97288.25;;;13.46;98.96
14790;BME280;7486;51.010;10.366;2023-07-28T03:02:46;97274.78;;;13.31;100.00
14790;BME280;7486;51.010;10.366;2023-07-28T03:05:32;97230.53;;;13.03;100.00
14790;BME280;7486;51.010;10.366;2023-07-28T03:08:30;97298.28;;;13.56;99.92
14790;BME280;7486;51.010;10.366;2023-07-28T03:11:34;97305.81;;;13.64;99.00
14790;BME280;7486;51.010;10.366;2023-07-28T03:14:19;97259.88;;;13.30;98.62
14790;BME280;7486;51.010;10.366;2023-07-28T03:17:05;97303.44;;;13.46;100.00
14790;BME280;7486;51.010;10.366;2023-07-28T03:19:50;97064.56;;;11.79;100.00
14790;BME280;7486;51.010;10.366;2023-07-28T03:22:36;97304.59;;;13.33;100.00
14790;BME280;7486;51.010;10.366;2023-07-28T03:25:21;97125.44;;;12.19;100.00
14790;BME280;7486;51.010;10.366;2023-07-28T03:28:06;97347.69;;;13.52;100.00
14790;BME280;7486;51.010;10.366;2023-07-28T03:30:52;97282.84;;;13.19;100.00
14790;BME280;7486;51.010;10.366;2023-07-28T03:33:38;97184.72;;;12.41;100.00
14790;BME280;7486;51.010;10.366;2023-07-28T03:36:23;97151.88;;;12.47;100.00
14790;BME280;7486;51.010;10.366;2023-07-28T03:39:09;97181.72;;;12.54;100.00
14790;BME280;7486;51.010;10.366;2023-07-28T03:41:54;97284.38;;;13.15;100.00
14790;BME280;7486;51.010;10.366;2023-07-28T03:44:41;97160.97;;;12.51;100.00
14790;BME280;7486;51.010;10.366;2023-07-28T03:47:27;97188.28;;;12.63;100.00
14790;BME280;7486;51.010;10.366;2023-07-28T03:50:12;97261.03;;;13.17;99.22
14790;BME280;7486;51.010;10.366;2023-07-28T03:52:58;97328.41;;;13.61;99.06
14790;BME280;7486;51.010;10.366;2023-07-28T03:55:43;97012.16;;;11.53;100.00
14790;BME280;7486;51.010;10.366;2023-07-28T03:58:29;97310.19;;;13.53;99.66
14790;BME280;7486;51.010;10.366;2023-07-28T04:01:14;97324.41;;;13.42;100.00
14790;BME280;7486;51.010;10.366;2023-07-28T04:04:00;97271.91;;;13.16;99.86
14790;BME280;7486;51.010;10.366;2023-07-28T04:06:47;97358.28;;;13.68;99.97
14790;BME280;7486;51.010;10.366;2023-07-28T04:09:33;97356.31;;;13.81;98.42
14790;BME280;7486;51.010;10.366;2023-07-28T04:12:18;97352.22;;;13.95;98.21
14790;BME280;7486;51.010;10.366;2023-07-28T04:15:04;97187.75;;;12.83;98.28
14790;BME280;7486;51.010;10.366;2023-07-28T04:17:50;97271.09;;;13.15;98.66
14790;BME280;7486;51.010;10.366;2023-07-28T04:20:35;97281.72;;;13.32;99.19
14790;BME280;7486;51.010;10.366;2023-07-28T04:23:21;97338.84;;;13.68;98.55
14790;BME280;7486;51.010;10.366;2023-07-28T04:26:06;97173.06;;;12.59;98.66
14790;BME280;7486;51.010;10.366;2023-07-28T04:28:52;97266.44;;;13.06;98.89
14790;BME280;7486;51.010;10.366;2023-07-28T04:31:37;97281.22;;;13.35;98.75
14790;BME280;7486;51.010;10.366;2023-07-28T04:34:26;97255.13;;;12.94;99.17
14790;BME280;7486;51.010;10.366;2023-07-28T04:37:27;97310.84;;;13.44;99.57
14790;BME280;7486;51.010;10.366;2023-07-28T04:40:16;97280.16;;;13.14;100.00
14790;BME280;7486;51.010;10.366;2023-07-28T04:43:02;97271.69;;;13.17;99.98
14790;BME280;7486;51.010;10.366;2023-07-28T04:45:47;97222.19;;;12.78;100.00
14790;BME280;7486;51.010;10.366;2023-07-28T04:48:36;97162.00;;;12.50;100.00
14790;BME280;7486;51.010;10.366;2023-07-28T04:51:30;97344.94;;;13.85;98.75
14790;BME280;7486;51.010;10.366;2023-07-28T04:54:39;97100.13;;;12.33;97.55
14790;BME280;7486;51.010;10.366;2023-07-28T04:57:24;97165.19;;;12.86;97.02
14790;BME280;7486;51.010;10.366;2023-07-28T05:00:10;97218.66;;;13.33;96.19
14790;BME280;7486;51.010;10.366;2023-07-28T05:02:56;97324.69;;;13.84;96.68
14790;BME280;7486;51.010;10.366;2023-07-28T05:05:43;97375.44;;;14.21;97.32
14790;BME280;7486;51.010;10.366;2023-07-28T05:08:30;97144.53;;;12.93;95.98
14790;BME280;7486;51.010;10.366;2023-07-28T05:11:16;97361.97;;;14.33;95.11
14790;BME280;7486;51.010;10.366;2023-07-28T05:14:02;97214.47;;;13.37;94.87
14790;BME280;7486;51.010;10.366;2023-07-28T05:16:48;97212.19;;;13.23;95.56
14790;BME280;7486;51.010;10.366;2023-07-28T05:20:09;97215.16;;;13.27;96.64
14790;BME280;7486;51.010;10.366;2023-07-28T05:23:04;97367.53;;;14.53;96.04
14790;BME280;7486;51.010;10.366;2023-07-28T05:25:51;97334.41;;;14.22;95.11
14790;BME280;7486;51.010;10.366;2023-07-28T05:28:36;97328.19;;;14.11;95.55
14790;BME280;7486;51.010;10.366;2023-07-28T05:31:22;97204.31;;;13.12;95.78
14790;BME280;7486;51.010;10.366;2023-07-28T05:34:07;97370.78;;;14.33;95.87
14790;BME280;7486;51.010;10.366;2023-07-28T05:36:53;97352.41;;;14.10;96.12
14790;BME280;7486;51.010;10.366;2023-07-28T05:39:41;97355.19;;;14.20;96.13
14790;BME280;7486;51.010;10.366;2023-07-28T05:42:26;97321.47;;;14.04;95.09
14790;BME280;7486;51.010;10.366;2023-07-28T05:45:12;97241.75;;;13.49;95.42
14790;BME280;7486;51.010;10.366;2023-07-28T05:47:58;97308.59;;;13.96;95.43
14790;BME280;7486;51.010;10.366;2023-07-28T05:50:43;97410.47;;;14.56;96.13
14790;BME280;7486;51.010;10.366;2023-07-28T05:53:29;97306.53;;;13.81;95.38
14790;BME280;7486;51.010;10.366;2023-07-28T05:56:20;97232.84;;;13.38;95.59
14790;BME280;7486;51.010;10.366;2023-07-28T05:59:05;97302.72;;;13.94;95.22
14790;BME280;7486;51.010;10.366;2023-07-28T06:01:51;97399.72;;;14.46;95.95
14790;BME280;7486;51.010;10.366;2023-07-28T06:04:36;97213.16;;;13.39;94.95
14790;BME280;7486;51.010;10.366;2023-07-28T06:07:23;97262.06;;;13.77;95.86
14790;BME280;7486;51.010;10.366;2023-07-28T06:10:09;97265.88;;;13.86;94.74
14790;BME280;7486;51.010;10.366;2023-07-28T06:12:54;97206.78;;;13.40;95.73
14790;BME280;7486;51.010;10.366;2023-07-28T06:15:41;97367.00;;;14.29;95.98
14790;BME280;7486;51.010;10.366;2023-07-28T06:18:26;97340.31;;;14.24;95.56
14790;BME280;7486;51.010;10.366;2023-07-28T06:21:27;97347.09;;;14.37;95.35
14790;BME280;7486;51.010;10.366;2023-07-28T06:24:12;97339.97;;;14.42;94.82
14790;BME280;7486;51.010;10.366;2023-07-28T06:26:58;97251.34;;;13.93;94.10
14790;BME280;7486;51.010;10.366;2023-07-28T06:29:43;97194.75;;;13.54;94.21
14790;BME280;7486;51.010;10.366;2023-07-28T06:32:29;97417.28;;;15.01;94.25
14790;BME280;7486;51.010;10.366;2023-07-28T06:35:14;97428.81;;;15.06;93.56
14790;BME280;7486;51.010;10.366;2023-07-28T06:38:01;97440.81;;;15.36;92.87
14790;BME280;7486;51.010;10.366;2023-07-28T06:40:46;97290.91;;;14.38;92.55
14790;BME280;7486;51.010;10.366;2023-07-28T06:43:33;97424.28;;;15.07;92.67
14790;BME280;7486;51.010;10.366;2023-07-28T06:46:19;97256.34;;;13.90;94.41
14790;BME280;7486;51.010;10.366;2023-07-28T06:49:05;97410.94;;;15.07;94.65
14790;BME280;7486;51.010;10.366;2023-07-28T06:51:50;97353.09;;;14.76;94.60
14790;BME280;7486;51.010;10.366;2023-07-28T06:54:36;97368.06;;;14.82;94.30
14790;BME280;7486;51.010;10.366;2023-07-28T06:57:25;97354.59;;;14.66;94.23
14790;BME280;7486;51.010;10.366;2023-07-28T07:00:11;97384.38;;;14.85;95.40
14790;BME280;7486;51.010;10.366;2023-07-28T07:02:56;97419.19;;;15.05;95.83
14790;BME280;7486;51.010;10.366;2023-07-28T07:05:42;97372.91;;;14.85;96.48
14790;BME280;7486;51.010;10.366;2023-07-28T07:08:28;97432.63;;;15.47;98.91
14790;BME280;7486;51.010;10.366;2023-07-28T07:11:13;97223.16;;;14.29;100.00
14790;BME280;7486;51.010;10.366;2023-07-28T07:13:59;97316.44;;;14.93;96.27
14790;BME280;7486;51.010;10.366;2023-07-28T07:16:44;97406.22;;;15.98;97.90
14790;BME280;7486;51.010;10.366;2023-07-28T07:19:30;97296.09;;;15.70;95.43
14790;BME280;7486;51.010;10.366;2023-07-28T07:22:15;97253.41;;;15.70;89.91
14790;BME280;7486;51.010;10.366;2023-07-28T07:25:02;97399.00;;;16.75;91.77
14790;BME280;7486;51.010;10.366;2023-07-28T07:27:49;97387.03;;;16.98;88.09
14790;BME280;7486;51.010;10.366;2023-07-28T07:30:35;97247.94;;;16.12;87.09
14790;BME280;7486;51.010;10.366;2023-07-28T07:33:21;97429.56;;;17.30;88.33
14790;BME280;7486;51.010;10.366;2023-07-28T07:36:14;97424.22;;;17.15;86.07
14790;BME280;7486;51.010;10.366;2023-07-28T07:39:00;97356.16;;;16.35;86.69
14790;BME280;7486;51.010;10.366;2023-07-28T07:41:45;97458.72;;;16.96;87.73
14790;BME280;7486;51.010;10.366;2023-07-28T07:44:31;97396.34;;;16.75;86.80
14790;BME280;7486;51.010;10.366;2023-07-28T07:47:16;97394.19;;;16.67;85.12
14790;BME280;7486;51.010;10.366;2023-07-28T07:50:02;97256.59;;;15.67;85.76
14790;BME280;7486;51.010;10.366;2023-07-28T07:52:48;97444.94;;;16.52;86.64
14790;BME280;7486;51.010;10.366;2023-07-28T07:55:33;97215.31;;;14.81;87.32
14790;BME280;7486;51.010;10.366;2023-07-28T07:58:19;97467.94;;;16.58;86.94
14790;BME280;7486;51.010;10.366;2023-07-28T08:01:05;97444.91;;;16.47;87.53
14790;BME280;7486;51.010;10.366;2023-07-28T08:03:51;97474.91;;;16.59;85.36
14790;BME280;7486;51.010;10.366;2023-07-28T08:06:36;97431.72;;;16.20;86.89
14790;BME280;7486;51.010;10.366;2023-07-28T08:09:21;97307.78;;;15.59;87.00
14790;BME280;7486;51.010;10.366;2023-07-28T08:12:08;97416.78;;;16.19;86.97
14790;BME280;7486;51.010;10.366;2023-07-28T08:14:54;97448.69;;;16.51;86.91
14790;BME280;7486;51.010;10.366;2023-07-28T08:17:41;97415.75;;;16.41;86.94
14790;BME280;7486;51.010;10.366;2023-07-28T08:20:27;97442.31;;;16.57;88.48
14790;BME280;7486;51.010;10.366;2023-07-28T08:23:12;97441.28;;;16.89;87.06
14790;BME280;7486;51.010;10.366;2023-07-28T08:25:58;97236.53;;;15.60;86.01
14790;BME280;7486;51.010;10.366;2023-07-28T08:28:43;97416.59;;;16.46;86.44
14790;BME280;7486;51.010;10.366;2023-07-28T08:31:29;97482.50;;;16.88;88.50
14790;BME280;7486;51.010;10.366;2023-07-28T08:34:15;97483.28;;;16.88;87.29
14790;BME280;7486;51.010;10.366;2023-07-28T08:37:01;97467.28;;;16.98;85.67
14790;BME280;7486;51.010;10.366;2023-07-28T08:39:46;97489.53;;;17.24;83.83
14790;BME280;7486;51.010;10.366;2023-07-28T08:42:37;97325.91;;;16.14;84.89
14790;BME280;7486;51.010;10.366;2023-07-28T08:45:23;97437.06;;;16.98;84.50
14790;BME280;7486;51.010;10.366;2023-07-28T08:48:08;97481.75;;;17.28;83.54
14790;BME280;7486;51.010;10.366;2023-07-28T08:50:54;97452.03;;;17.04;83.67
14790;BME280;7486;51.010;10.366;2023-07-28T08:53:40;97427.97;;;17.09;82.47
14790;BME280;7486;51.010;10.366;2023-07-28T08:56:25;97456.88;;;17.32;83.24
14790;BME280;7486;51.010;10.366;2023-07-28T08:59:11;97434.38;;;17.23;82.84
14790;BME280;7486;51.010;10.366;2023-07-28T09:01:57;97511.25;;;17.83;80.86
14790;BME280;7486;51.010;10.366;2023-07-28T09:04:44;97497.84;;;17.63;81.33
14790;BME280;7486;51.010;10.366;2023-07-28T09:07:36;97498.09;;;17.51;82.36
14790;BME280;7486;51.010;10.366;2023-07-28T09:10:22;97315.00;;;16.31;81.88
14790;BME280;7486;51.010;10.366;2023-07-28T09:13:12;97524.06;;;17.56;82.07
14790;BME280;7486;51.010;10.366;2023-07-28T09:16:01;97519.53;;;17.71;82.46
14790;BME280;7486;51.010;10.366;2023-07-28T09:18:46;97350.06;;;16.50;81.24
14790;BME280;7486;51.010;10.366;2023-07-28T09:21:32;97441.38;;;17.19;82.17
14790;BME280;7486;51.010;10.366;2023-07-28T09:24:18;97434.13;;;17.45;81.53
14790;BME280;7486;51.010;10.366;2023-07-28T09:27:04;97510.69;;;18.01;85.29
14790;BME280;7486;51.010;10.366;2023-07-28T09:29:51;97425.81;;;17.77;80.53
14790;BME280;7486;51.010;10.366;2023-07-28T09:32:37;97468.53;;;18.32;79.05
14790;BME280;7486;51.010;10.366;2023-07-28T09:35:22;97252.16;;;17.19;78.30
14790;BME280;7486;51.010;10.366;2023-07-28T09:38:08;97514.72;;;18.78;76.84
14790;BME280;7486;51.010;10.366;2023-07-28T09:40:56;97502.13;;;18.73;77.02
14790;BME280;7486;51.010;10.366;2023-07-28T09:43:42;97469.34;;;18.87;78.08
14790;BME280;7486;51.010;10.366;2023-07-28T09:46:28;97341.94;;;18.45;76.54
14790;BME280;7486;51.010;10.366;2023-07-28T09:49:15;97339.19;;;18.55;74.54
14790;BME280;7486;51.010;10.366;2023-07-28T09:52:08;97516.22;;;20.35;71.44
14790;BME280;7486;51.010;10.366;2023-07-28T09:54:55;97350.03;;;19.13;71.87
14790;BME280;7486;51.010;10.366;2023-07-28T09:57:45;97415.84;;;19.68;70.98
14790;BME280;7486;51.010;10.366;2023-07-28T10:00:32;97195.50;;;18.49;71.22
14790;BME280;7486;51.010;10.366;2023-07-28T10:03:18;97503.66;;;20.54;68.57
14790;BME280;7486;51.010;10.366;2023-07-28T10:06:04;97399.59;;;19.78;67.40
14790;BME280;7486;51.010;10.366;2023-07-28T10:08:50;97332.22;;;19.22;67.58
14790;BME280;7486;51.010;10.366;2023-07-28T10:11:36;97373.03;;;19.24;70.54
14790;BME280;7486;51.010;10.366;2023-07-28T10:14:40;97505.06;;;20.46;70.79
14790;BME280;7486;51.010;10.366;2023-07-28T10:17:31;97467.31;;;20.56;68.77
14790;BME280;7486;51.010;10.366;2023-07-28T10:20:35;97533.84;;;21.12;68.05
14790;BME280;7486;51.010;10.366;2023-07-28T10:23:22;97495.00;;;21.18;65.65
14790;BME280;7486;51.010;10.366;2023-07-28T10:26:09;97351.22;;;20.26;66.31
14790;BME280;7486;51.010;10.366;2023-07-28T10:28:54;97486.88;;;21.23;65.91
14790;BME280;7486;51.010;10.366;2023-07-28T10:32:00;97444.28;;;20.88;66.33
14790;BME280;7486;51.010;10.366;2023-07-28T10:34:59;97424.34;;;20.51;65.86
14790;BME280;7486;51.010;10.366;2023-07-28T10:37:45;97546.13;;;20.81;68.21
14790;BME280;7486;51.010;10.366;2023-07-28T10:40:33;97546.16;;;20.76;67.66
14790;BME280;7486;51.010;10.366;2023-07-28T10:43:19;97474.44;;;20.18;66.74
14790;BME280;7486;51.010;10.366;2023-07-28T10:46:07;97421.94;;;19.73;68.49
14790;BME280;7486;51.010;10.366;2023-07-28T10:48:54;97404.81;;;19.41;68.65
14790;BME280;7486;51.010;10.366;2023-07-28T10:51:39;97531.59;;;20.05;67.99
14790;BME280;7486;51.010;10.366;2023-07-28T10:54:24;97412.88;;;19.41;68.30
14790;BME280;7486;51.010;10.366;2023-07-28T10:57:11;97447.59;;;19.61;70.65
14790;BME280;7486;51.010;10.366;2023-07-28T11:00:00;97440.19;;;20.05;68.46
14790;BME280;7486;51.010;10.366;2023-07-28T11:02:49;97550.34;;;20.87;68.28
14790;BME280;7486;51.010;10.366;2023-07-28T11:05:38;97486.81;;;20.43;68.56
14790;BME280;7486;51.010;10.366;2023-07-28T11:08:24;97433.16;;;19.86;67.48
14790;BME280;7486;51.010;10.366;2023-07-28T11:11:10;97318.63;;;19.13;67.13
14790;BME280;7486;51.010;10.366;2023-07-28T11:13:55;97471.84;;;19.80;68.67
14790;BME280;7486;51.010;10.366;2023-07-28T11:16:41;97540.78;;;20.76;68.81
14790;BME280;7486;51.010;10.366;2023-07-28T11:19:27;97321.13;;;19.57;64.93
14790;BME280;7486;51.010;10.366;2023-07-28T11:22:16;97152.22;;;18.27;66.28
14790;BME280;7486;51.010;10.366;2023-07-28T11:25:01;97486.59;;;20.63;65.30
14790;BME280;7486;51.010;10.366;2023-07-28T11:27:51;97402.59;;;20.24;65.18
14790;BME280;7486;51.010;10.366;2023-07-28T11:30:36;97517.66;;;20.75;65.35
14790;BME280;7486;51.010;10.366;2023-07-28T11:33:22;97414.16;;;20.01;65.59
14790;BME280;7486;51.010;10.366;2023-07-28T11:36:07;97541.13;;;21.11;65.81
14790;BME280;7486;51.010;10.366;2023-07-28T11:38:55;97332.84;;;19.90;66.57
14790;BME280;7486;51.010;10.366;2023-07-28T11:41:41;97519.41;;;20.84;67.83
14790;BME280;7486;51.010;10.366;2023-07-28T11:44:27;97399.53;;;20.12;67.97
14790;BME280;7486;51.010;10.366;2023-07-28T11:47:17;97505.50;;;21.19;67.69
14790;BME280;7486;51.010;10.366;2023-07-28T11:50:03;97345.84;;;20.07;66.17
14790;BME280;7486;51.010;10.366;2023-07-28T11:52:49;97548.44;;;21.30;66.52
14790;BME280;7486;51.010;10.366;2023-07-28T11:55:35;97274.13;;;19.79;64.66
14790;BME280;7486;51.010;10.366;2023-07-28T11:58:21;97547.81;;;21.14;64.61
14790;BME280;7486;51.010;10.366;2023-07-28T12:01:08;97328.44;;;19.52;66.81
14790;BME280;7486;51.010;10.366;2023-07-28T12:03:54;97395.28;;;19.82;65.61
14790;BME280;7486;51.010;10.366;2023-07-28T12:07:02;97552.19;;;20.67;66.20
14790;BME280;7486;51.010;10.366;2023-07-28T12:09:50;97560.75;;;20.93;66.15
14790;BME280;7486;51.010;10.366;2023-07-28T12:12:47;97337.69;;;19.64;65.81
14790;BME280;7486;51.010;10.366;2023-07-28T12:15:40;97549.66;;;20.76;65.84
14790;BME280;7486;51.010;10.366;2023-07-28T12:18:30;97501.34;;;20.42;65.55
14790;BME280;7486;51.010;10.366;2023-07-28T12:21:18;97410.56;;;19.58;65.90
14790;BME280;7486;51.010;10.366;2023-07-28T12:24:05;97397.25;;;19.71;66.81
14790;BME280;7486;51.010;10.366;2023-07-28T12:26:53;97502.59;;;20.26;68.48
14790;BME280;7486;51.010;10.366;2023-07-28T12:29:39;97468.97;;;20.05;68.10
14790;BME280;7486;51.010;10.366;2023-07-28T12:32:44;97518.59;;;20.65;68.32
14790;BME280;7486;51.010;10.366;2023-07-28T12:35:34;97517.91;;;20.54;66.00
14790;BME280;7486;51.010;10.366;2023-07-28T12:38:22;97547.28;;;20.51;70.12
14790;BME280;7486;51.010;10.366;2023-07-28T12:41:11;97531.78;;;19.85;72.88
14790;BME280;7486;51.010;10.366;2023-07-28T12:43:56;97476.34;;;19.27;73.66
14790;BME280;7486;51.010;10.366;2023-07-28T12:46:45;97434.56;;;19.15;75.02
14790;BME280;7486;51.010;10.366;2023-07-28T12:49:31;97546.22;;;20.23;73.53
14790;BME280;7486;51.010;10.366;2023-07-28T12:52:16;97498.91;;;19.93;69.52
14790;BME280;7486;51.010;10.366;2023-07-28T12:55:04;97469.56;;;19.68;70.56
14790;BME280;7486;51.010;10.366;2023-07-28T12:57:53;97421.38;;;19.77;71.10
14790;BME280;7486;51.010;10.366;2023-07-28T13:00:39;97574.75;;;20.95;69.56
14790;BME280;7486;51.010;10.366;2023-07-28T13:03:28;96606.28;;;14.79;69.08
14790;BME280;7486;51.010;10.366;2023-07-28T13:06:13;96728.59;;;15.74;69.04
14790;BME280;7486;51.010;10.366;2023-07-28T13:09:01;96682.44;;;15.69;66.93
14790;BME280;7486;51.010;10.366;2023-07-28T13:11:50;96829.47;;;16.75;65.25
14790;BME280;7486;51.010;10.366;2023-07-28T13:14:39;96768.88;;;16.32;66.11
14790;BME280;7486;51.010;10.366;2023-07-28T13:17:25;97026.94;;;18.38;65.09
14790;BME280;7486;51.010;10.366;2023-07-28T13:20:11;96676.84;;;16.09;62.99
14790;BME280;7486;51.010;10.366;2023-07-28T13:22:57;96750.28;;;16.51;63.61
14790;BME280;7486;51.010;10.366;2023-07-28T13:25:42;97214.16;;;19.41;64.61
14790;BME280;7486;51.010;10.366;2023-07-28T13:28:28;97433.88;;;20.81;64.63
14790;BME280;7486;51.010;10.366;2023-07-28T13:31:15;97568.38;;;21.66;63.09
14790;BME280;7486;51.010;10.366;2023-07-28T13:34:01;97459.84;;;20.91;62.26
14790;BME280;7486;51.010;10.366;2023-07-28T13:36:47;97553.00;;;21.66;62.73
14790;BME280;7486;51.010;10.366;2023-07-28T13:39:33;97296.06;;;20.09;62.35
14790;BME280;7486;51.010;10.366;2023-07-28T13:42:18;97426.69;;;20.95;61.36
14790;BME280;7486;51.010;10.366;2023-07-28T13:45:04;97532.88;;;21.78;60.97
14790;BME280;7486;51.010;10.366;2023-07-28T13:47:50;97504.97;;;21.68;61.63
14790;BME280;7486;51.010;10.366;2023-07-28T13:50:35;97438.13;;;21.38;60.30
14790;BME280;7486;51.010;10.366;2023-07-28T13:53:23;97503.63;;;21.71;61.81
14790;BME280;7486;51.010;10.366;2023-07-28T13:56:12;97527.97;;;21.98;59.84
14790;BME280;7486;51.010;10.366;2023-07-28T13:59:00;97489.59;;;21.88;59.63
14790;BME280;7486;51.010;10.366;2023-07-28T14:01:46;97445.78;;;21.63;58.53
14790;BME280;7486;51.010;10.366;2023-07-28T14:04:31;97354.22;;;20.99;59.15
14790;BME280;7486;51.010;10.366;2023-07-28T14:07:17;97429.69;;;21.58;58.88
14790;BME280;7486;51.010;10.366;2023-07-28T14:10:02;97421.91;;;21.43;58.69
14790;BME280;7486;51.010;10.366;2023-07-28T14:12:51;97513.78;;;22.06;59.06
14790;BME280;7486;51.010;10.366;2023-07-28T14:15:37;97374.56;;;21.37;59.14
14790;BME280;7486;51.010;10.366;2023-07-28T14:18:25;97378.66;;;21.02;59.19
14790;BME280;7486;51.010;10.366;2023-07-28T14:21:10;97292.56;;;20.46;60.55
14790;BME280;7486;51.010;10.366;2023-07-28T14:23:57;97541.09;;;21.86;59.91
14790;BME280;7486;51.010;10.366;2023-07-28T14:26:43;97566.13;;;22.05;61.07
14790;BME280;7486;51.010;10.366;2023-07-28T14:29:28;97385.66;;;20.66;60.82
14790;BME280;7486;51.010;10.366;2023-07-28T14:32:13;97476.53;;;21.30;60.86
14790;BME280;7486;51.010;10.366;2023-07-28T14:34:59;97507.84;;;21.58;60.48
14790;BME280;7486;51.010;10.366;2023-07-28T14:37:45;97449.06;;;21.28;60.42
14790;BME280;7486;51.010;10.366;2023-07-28T14:40:30;97566.81;;;21.79;60.42
14790;BME280;7486;51.010;10.366;2023-07-28T14:43:16;97339.97;;;20.42;60.51